sensor_id;sensor_type;location;lat;lon;timestamp;pressure;altitude;pressure_sealevel;temperature
45850;BMP180;10739;52.198;20.908;2023-06-10T00:00:43;100311.00;;;21.70
45850;BMP180;10739;52.198;20.908;2023-06-10T00:03:10;100317.00;;;21.60
45850;BMP180;10739;52.198;20.908;2023-06-10T00:05:37;100321.00;;;21.70
45850;BMP180;10739;52.198;20.908;2023-06-10T00:08:08;100320.00;;;21.60
45850;BMP180;10739;52.198;20.908;2023-06-10T00:10:38;100322.00;;;21.70
45850;BMP180;10739;52.198;20.908;2023-06-10T00:13:06;100321.00;;;21.60
45850;BMP180;10739;52.198;20.908;2023-06-10T00:15:37;100309.00;;;21.60
45850;BMP180;10739;52.198;20.908;2023-06-10T00:18:04;100312.00;;;21.50
45850;BMP180;10739;52.198;20.908;2023-06-10T00:20:31;100313.00;;;21.40
45850;BMP180;10739;52.198;20.908;2023-06-10T00:22:58;100314.00;;;21.30
45850;BMP180;10739;52.198;20.908;2023-06-10T00:25:27;100310.00;;;21.40
45850;BMP180;10739;52.198;20.908;2023-06-10T00:27:53;100315.00;;;21.40
45850;BMP180;10739;52.198;20.908;2023-06-10T00:30:19;100311.00;;;21.50
45850;BMP180;10739;52.198;20.908;2023-06-10T00:32:46;100316.00;;;21.40
45850;BMP180;10739;52.198;20.908;2023-06-10T00:35:12;100309.00;;;21.40
45850;BMP180;10739;52.198;20.908;2023-06-10T00:37:38;100316.00;;;21.30
45850;BMP180;10739;52.198;20.908;2023-06-10T00:40:06;100307.00;;;21.40
45850;BMP180;10739;52.198;20.908;2023-06-10T00:42:35;100309.00;;;21.30
45850;BMP180;10739;52.198;20.908;2023-06-10T00:45:01;100307.00;;;21.50
45850;BMP180;10739;52.198;20.908;2023-06-10T00:47:29;100297.00;;;21.50
45850;BMP180;10739;52.198;20.908;2023-06-10T00:49:57;100299.00;;;21.40
45850;BMP180;10739;52.198;20.908;2023-06-10T00:52:28;100295.00;;;21.30
45850;BMP180;10739;52.198;20.908;2023-06-10T00:54:56;100301.00;;;21.30
45850;BMP180;10739;52.198;20.908;2023-06-10T00:57:22;100306.00;;;21.20
45850;BMP180;10739;52.198;20.908;2023-06-10T00:59:49;100306.00;;;21.00
45850;BMP180;10739;52.198;20.908;2023-06-10T01:02:16;100305.00;;;21.00
45850;BMP180;10739;52.198;20.908;2023-06-10T01:04:43;100314.00;;;20.90
45850;BMP180;10739;52.198;20.908;2023-06-10T01:10:11;100310.00;;;20.80
45850;BMP180;10739;52.198;20.908;2023-06-10T01:13:03;100309.00;;;20.80
45850;BMP180;10739;52.198;20.908;2023-06-10T01:15:34;100310.00;;;20.80
45850;BMP180;10739;52.198;20.908;2023-06-10T01:18:04;100317.00;;;20.70
45850;BMP180;10739;52.198;20.908;2023-06-10T01:20:37;100314.00;;;20.70
45850;BMP180;10739;52.198;20.908;2023-06-10T01:23:07;100311.00;;;20.60
45850;BMP180;10739;52.198;20.908;2023-06-10T01:25:37;100315.00;;;20.60
45850;BMP180;10739;52.198;20.908;2023-06-10T01:31:27;100324.00;;;20.50
45850;BMP180;10739;52.198;20.908;2023-06-10T01:34:01;100324.00;;;20.60
45850;BMP180;10739;52.198;20.908;2023-06-10T01:36:33;100324.00;;;20.70
45850;BMP180;10739;52.198;20.908;2023-06-10T01:39:00;100334.00;;;20.60
45850;BMP180;10739;52.198;20.908;2023-06-10T01:41:29;100333.00;;;20.60
45850;BMP180;10739;52.198;20.908;2023-06-10T01:43:55;100332.00;;;20.50
45850;BMP180;10739;52.198;20.908;2023-06-10T01:46:22;100331.00;;;20.60
45850;BMP180;10739;52.198;20.908;2023-06-10T01:48:48;100319.00;;;20.50
45850;BMP180;10739;52.198;20.908;2023-06-10T01:51:15;100338.00;;;20.50
45850;BMP180;10739;52.198;20.908;2023-06-10T01:53:41;100337.00;;;20.30
45850;BMP180;10739;52.198;20.908;2023-06-10T01:56:07;100338.00;;;20.50
45850;BMP180;10739;52.198;20.908;2023-06-10T01:58:34;100345.00;;;20.40
45850;BMP180;10739;52.198;20.908;2023-06-10T02:01:00;100342.00;;;20.20
45850;BMP180;10739;52.198;20.908;2023-06-10T02:03:26;100347.00;;;20.40
45850;BMP180;10739;52.198;20.908;2023-06-10T02:05:53;100343.00;;;20.30
45850;BMP180;10739;52.198;20.908;2023-06-10T02:08:19;100345.00;;;20.30
45850;BMP180;10739;52.198;20.908;2023-06-10T02:10:45;100341.00;;;20.30
45850;BMP180;10739;52.198;20.908;2023-06-10T02:13:11;100340.00;;;20.20
45850;BMP180;10739;52.198;20.908;2023-06-10T02:15:38;100342.00;;;20.20
45850;BMP180;10739;52.198;20.908;2023-06-10T02:18:04;100343.00;;;20.20
45850;BMP180;10739;52.198;20.908;2023-06-10T02:20:30;100352.00;;;20.30
45850;BMP180;10739;52.198;20.908;2023-06-10T02:22:58;100344.00;;;20.30
45850;BMP180;10739;52.198;20.908;2023-06-10T02:25:25;100348.00;;;20.10
45850;BMP180;10739;52.198;20.908;2023-06-10T02:27:51;100354.00;;;20.20
45850;BMP180;10739;52.198;20.908;2023-06-10T02:30:18;100357.00;;;20.20
45850;BMP180;10739;52.198;20.908;2023-06-10T02:32:44;100355.00;;;20.00
45850;BMP180;10739;52.198;20.908;2023-06-10T02:35:14;100352.00;;;20.00
45850;BMP180;10739;52.198;20.908;2023-06-10T02:37:41;100365.00;;;20.10
45850;BMP180;10739;52.198;20.908;2023-06-10T02:40:09;100361.00;;;20.00
45850;BMP180;10739;52.198;20.908;2023-06-10T02:42:36;100368.00;;;19.90
45850;BMP180;10739;52.198;20.908;2023-06-10T02:45:03;100380.00;;;19.80
45850;BMP180;10739;52.198;20.908;2023-06-10T02:47:31;100368.00;;;20.00
45850;BMP180;10739;52.198;20.908;2023-06-10T02:49:57;100367.00;;;19.90
45850;BMP180;10739;52.198;20.908;2023-06-10T02:52:24;100365.00;;;19.90
45850;BMP180;10739;52.198;20.908;2023-06-10T02:54:50;100369.00;;;19.90
45850;BMP180;10739;52.198;20.908;2023-06-10T02:57:17;100375.00;;;20.60
45850;BMP180;10739;52.198;20.908;2023-06-10T02:59:43;100381.00;;;20.90
45850;BMP180;10739;52.198;20.908;2023-06-10T03:02:09;100378.00;;;20.80
45850;BMP180;10739;52.198;20.908;2023-06-10T03:04:38;100379.00;;;21.00
45850;BMP180;10739;52.198;20.908;2023-06-10T03:07:05;100382.00;;;20.90
45850;BMP180;10739;52.198;20.908;2023-06-10T03:09:35;100380.00;;;21.10
45850;BMP180;10739;52.198;20.908;2023-06-10T03:12:01;100378.00;;;20.80
45850;BMP180;10739;52.198;20.908;2023-06-10T03:14:27;100380.00;;;20.90
45850;BMP180;10739;52.198;20.908;2023-06-10T03:16:54;100379.00;;;20.90
45850;BMP180;10739;52.198;20.908;2023-06-10T03:19:22;100379.00;;;21.00
45850;BMP180;10739;52.198;20.908;2023-06-10T03:22:15;100383.00;;;21.10
45850;BMP180;10739;52.198;20.908;2023-06-10T03:24:42;100381.00;;;21.00
45850;BMP180;10739;52.198;20.908;2023-06-10T03:27:10;100391.00;;;21.10
45850;BMP180;10739;52.198;20.908;2023-06-10T03:29:41;100391.00;;;21.10
45850;BMP180;10739;52.198;20.908;2023-06-10T03:32:07;100389.00;;;21.00
45850;BMP180;10739;52.198;20.908;2023-06-10T03:34:34;100390.00;;;21.30
45850;BMP180;10739;52.198;20.908;2023-06-10T03:37:00;100389.00;;;21.30
45850;BMP180;10739;52.198;20.908;2023-06-10T03:39:26;100398.00;;;21.30
45850;BMP180;10739;52.198;20.908;2023-06-10T03:41:55;100403.00;;;21.20
45850;BMP180;10739;52.198;20.908;2023-06-10T03:44:24;100403.00;;;21.20
45850;BMP180;10739;52.198;20.908;2023-06-10T03:46:52;100401.00;;;21.00
45850;BMP180;10739;52.198;20.908;2023-06-10T03:49:19;100403.00;;;21.00
45850;BMP180;10739;52.198;20.908;2023-06-10T03:51:45;100399.00;;;21.00
45850;BMP180;10739;52.198;20.908;2023-06-10T03:54:11;100410.00;;;21.00
45850;BMP180;10739;52.198;20.908;2023-06-10T03:56:39;100408.00;;;21.30
45850;BMP180;10739;52.198;20.908;2023-06-10T03:59:05;100411.00;;;21.40
45850;BMP180;10739;52.198;20.908;2023-06-10T04:01:31;100415.00;;;21.60
45850;BMP180;10739;52.198;20.908;2023-06-10T04:04:06;100403.00;;;21.50
45850;BMP180;10739;52.198;20.908;2023-06-10T04:06:52;100409.00;;;21.40
45850;BMP180;10739;52.198;20.908;2023-06-10T04:09:19;100414.00;;;21.30
45850;BMP180;10739;52.198;20.908;2023-06-10T04:11:45;100406.00;;;21.50
45850;BMP180;10739;52.198;20.908;2023-06-10T04:14:11;100423.00;;;21.60
45850;BMP180;10739;52.198;20.908;2023-06-10T04:16:38;100420.00;;;21.20
45850;BMP180;10739;52.198;20.908;2023-06-10T04:19:05;100423.00;;;21.30
45850;BMP180;10739;52.198;20.908;2023-06-10T04:21:31;100417.00;;;21.50
45850;BMP180;10739;52.198;20.908;2023-06-10T04:23:59;100423.00;;;21.70
45850;BMP180;10739;52.198;20.908;2023-06-10T04:26:25;100427.00;;;21.40
45850;BMP180;10739;52.198;20.908;2023-06-10T04:28:51;100418.00;;;21.70
45850;BMP180;10739;52.198;20.908;2023-06-10T04:31:18;100415.00;;;21.80
45850;BMP180;10739;52.198;20.908;2023-06-10T04:33:44;100417.00;;;21.80
45850;BMP180;10739;52.198;20.908;2023-06-10T04:36:11;100417.00;;;21.70
45850;BMP180;10739;52.198;20.908;2023-06-10T04:38:37;100421.00;;;21.90
45850;BMP180;10739;52.198;20.908;2023-06-10T04:41:04;100426.00;;;22.00
45850;BMP180;10739;52.198;20.908;2023-06-10T04:43:30;100426.00;;;21.90
45850;BMP180;10739;52.198;20.908;2023-06-10T04:45:56;100426.00;;;21.80
45850;BMP180;10739;52.198;20.908;2023-06-10T04:48:22;100420.00;;;21.90
45850;BMP180;10739;52.198;20.908;2023-06-10T04:50:50;100424.00;;;22.10
45850;BMP180;10739;52.198;20.908;2023-06-10T04:53:17;100433.00;;;22.00
45850;BMP180;10739;52.198;20.908;2023-06-10T04:55:43;100428.00;;;22.10
45850;BMP180;10739;52.198;20.908;2023-06-10T04:58:09;100430.00;;;22.30
45850;BMP180;10739;52.198;20.908;2023-06-10T05:00:36;100429.00;;;22.10
45850;BMP180;10739;52.198;20.908;2023-06-10T05:03:02;100432.00;;;21.90
45850;BMP180;10739;52.198;20.908;2023-06-10T05:05:28;100441.00;;;22.10
45850;BMP180;10739;52.198;20.908;2023-06-10T05:07:55;100434.00;;;22.30
45850;BMP180;10739;52.198;20.908;2023-06-10T05:10:21;100440.00;;;22.50
45850;BMP180;10739;52.198;20.908;2023-06-10T05:12:48;100439.00;;;22.60
45850;BMP180;10739;52.198;20.908;2023-06-10T05:15:14;100439.00;;;22.70
45850;BMP180;10739;52.198;20.908;2023-06-10T05:17:40;100444.00;;;22.60
45850;BMP180;10739;52.198;20.908;2023-06-10T05:20:07;100444.00;;;22.60
45850;BMP180;10739;52.198;20.908;2023-06-10T05:22:34;100444.00;;;22.60
45850;BMP180;10739;52.198;20.908;2023-06-10T05:25:00;100440.00;;;22.80
45850;BMP180;10739;52.198;20.908;2023-06-10T05:27:26;100444.00;;;22.90
45850;BMP180;10739;52.198;20.908;2023-06-10T05:29:52;100442.00;;;22.90
45850;BMP180;10739;52.198;20.908;2023-06-10T05:32:19;100442.00;;;22.90
45850;BMP180;10739;52.198;20.908;2023-06-10T05:34:45;100445.00;;;23.00
45850;BMP180;10739;52.198;20.908;2023-06-10T05:37:12;100439.00;;;23.10
45850;BMP180;10739;52.198;20.908;2023-06-10T05:39:39;100444.00;;;23.30
45850;BMP180;10739;52.198;20.908;2023-06-10T05:42:07;100446.00;;;23.30
45850;BMP180;10739;52.198;20.908;2023-06-10T05:44:34;100445.00;;;23.20
45850;BMP180;10739;52.198;20.908;2023-06-10T05:47:00;100446.00;;;23.10
45850;BMP180;10739;52.198;20.908;2023-06-10T05:49:27;100445.00;;;23.20
45850;BMP180;10739;52.198;20.908;2023-06-10T05:51:53;100452.00;;;23.20
45850;BMP180;10739;52.198;20.908;2023-06-10T05:54:19;100454.00;;;23.40
45850;BMP180;10739;52.198;20.908;2023-06-10T05:56:46;100454.00;;;23.40
45850;BMP180;10739;52.198;20.908;2023-06-10T05:59:12;100456.00;;;23.60
45850;BMP180;10739;52.198;20.908;2023-06-10T06:01:38;100455.00;;;23.40
45850;BMP180;10739;52.198;20.908;2023-06-10T06:04:05;100454.00;;;23.80
45850;BMP180;10739;52.198;20.908;2023-06-10T06:06:31;100460.00;;;23.90
45850;BMP180;10739;52.198;20.908;2023-06-10T06:08:57;100460.00;;;24.00
45850;BMP180;10739;52.198;20.908;2023-06-10T06:11:24;100462.00;;;23.90
45850;BMP180;10739;52.198;20.908;2023-06-10T06:13:51;100459.00;;;24.30
45850;BMP180;10739;52.198;20.908;2023-06-10T06:16:18;100457.00;;;24.20
45850;BMP180;10739;52.198;20.908;2023-06-10T06:18:44;100452.00;;;24.40
45850;BMP180;10739;52.198;20.908;2023-06-10T06:21:10;100456.00;;;24.50
45850;BMP180;10739;52.198;20.908;2023-06-10T06:23:36;100458.00;;;24.60
45850;BMP180;10739;52.198;20.908;2023-06-10T06:26:04;100454.00;;;24.80
45850;BMP180;10739;52.198;20.908;2023-06-10T06:28:30;100451.00;;;24.60
45850;BMP180;10739;52.198;20.908;2023-06-10T06:30:57;100453.00;;;24.80
45850;BMP180;10739;52.198;20.908;2023-06-10T06:33:23;100458.00;;;24.50
45850;BMP180;10739;52.198;20.908;2023-06-10T06:35:50;100463.00;;;24.50
45850;BMP180;10739;52.198;20.908;2023-06-10T06:38:16;100463.00;;;24.50
45850;BMP180;10739;52.198;20.908;2023-06-10T06:40:42;100458.00;;;24.60
45850;BMP180;10739;52.198;20.908;2023-06-10T06:43:08;100456.00;;;24.60
45850;BMP180;10739;52.198;20.908;2023-06-10T06:45:35;100455.00;;;24.90
45850;BMP180;10739;52.198;20.908;2023-06-10T06:48:01;100460.00;;;24.90
45850;BMP180;10739;52.198;20.908;2023-06-10T06:50:27;100461.00;;;25.10
45850;BMP180;10739;52.198;20.908;2023-06-10T06:52:53;100465.00;;;25.10
45850;BMP180;10739;52.198;20.908;2023-06-10T06:55:20;100474.00;;;25.10
45850;BMP180;10739;52.198;20.908;2023-06-10T06:57:46;100471.00;;;24.90
45850;BMP180;10739;52.198;20.908;2023-06-10T07:00:13;100476.00;;;25.30
45850;BMP180;10739;52.198;20.908;2023-06-10T07:02:40;100473.00;;;25.30
45850;BMP180;10739;52.198;20.908;2023-06-10T07:05:07;100476.00;;;25.30
45850;BMP180;10739;52.198;20.908;2023-06-10T07:07:33;100471.00;;;25.50
45850;BMP180;10739;52.198;20.908;2023-06-10T07:09:59;100471.00;;;25.60
45850;BMP180;10739;52.198;20.908;2023-06-10T07:12:26;100482.00;;;25.90
45850;BMP180;10739;52.198;20.908;2023-06-10T07:14:52;100472.00;;;25.60
45850;BMP180;10739;52.198;20.908;2023-06-10T07:17:18;100473.00;;;25.80
45850;BMP180;10739;52.198;20.908;2023-06-10T07:19:45;100476.00;;;25.70
45850;BMP180;10739;52.198;20.908;2023-06-10T07:22:12;100476.00;;;25.70
45850;BMP180;10739;52.198;20.908;2023-06-10T07:24:38;100478.00;;;26.00
45850;BMP180;10739;52.198;20.908;2023-06-10T07:27:05;100481.00;;;26.00
45850;BMP180;10739;52.198;20.908;2023-06-10T07:29:32;100480.00;;;26.30
45850;BMP180;10739;52.198;20.908;2023-06-10T07:32:04;100478.00;;;26.40
45850;BMP180;10739;52.198;20.908;2023-06-10T07:34:42;100475.00;;;26.30
45850;BMP180;10739;52.198;20.908;2023-06-10T07:37:18;100486.00;;;26.70
45850;BMP180;10739;52.198;20.908;2023-06-10T07:39:45;100481.00;;;26.70
45850;BMP180;10739;52.198;20.908;2023-06-10T07:42:11;100479.00;;;27.10
45850;BMP180;10739;52.198;20.908;2023-06-10T07:44:38;100482.00;;;27.00
45850;BMP180;10739;52.198;20.908;2023-06-10T07:47:04;100485.00;;;27.10
45850;BMP180;10739;52.198;20.908;2023-06-10T07:49:31;100489.00;;;27.30
45850;BMP180;10739;52.198;20.908;2023-06-10T07:51:57;100495.00;;;27.30
45850;BMP180;10739;52.198;20.908;2023-06-10T07:54:23;100491.00;;;27.50
45850;BMP180;10739;52.198;20.908;2023-06-10T07:56:50;100487.00;;;27.70
45850;BMP180;10739;52.198;20.908;2023-06-10T07:59:18;100498.00;;;27.60
45850;BMP180;10739;52.198;20.908;2023-06-10T08:01:45;100505.00;;;27.30
45850;BMP180;10739;52.198;20.908;2023-06-10T08:04:11;100502.00;;;27.10
45850;BMP180;10739;52.198;20.908;2023-06-10T08:06:37;100495.00;;;27.20
45850;BMP180;10739;52.198;20.908;2023-06-10T08:09:04;100503.00;;;27.50
45850;BMP180;10739;52.198;20.908;2023-06-10T08:11:30;100501.00;;;27.90
45850;BMP180;10739;52.198;20.908;2023-06-10T08:13:56;100497.00;;;28.00
45850;BMP180;10739;52.198;20.908;2023-06-10T08:16:23;100499.00;;;28.20
45850;BMP180;10739;52.198;20.908;2023-06-10T08:18:49;100502.00;;;27.90
45850;BMP180;10739;52.198;20.908;2023-06-10T08:21:16;100504.00;;;28.30
45850;BMP180;10739;52.198;20.908;2023-06-10T08:23:42;100496.00;;;28.00
45850;BMP180;10739;52.198;20.908;2023-06-10T08:26:10;100516.00;;;27.70
45850;BMP180;10739;52.198;20.908;2023-06-10T08:28:36;100505.00;;;27.70
45850;BMP180;10739;52.198;20.908;2023-06-10T08:31:02;100501.00;;;27.60
45850;BMP180;10739;52.198;20.908;2023-06-10T08:33:28;100509.00;;;27.40
45850;BMP180;10739;52.198;20.908;2023-06-10T08:35:55;100503.00;;;27.10
45850;BMP180;10739;52.198;20.908;2023-06-10T08:38:21;100512.00;;;27.30
45850;BMP180;10739;52.198;20.908;2023-06-10T08:40:50;100504.00;;;27.70
45850;BMP180;10739;52.198;20.908;2023-06-10T08:43:37;100491.00;;;28.10
45850;BMP180;10739;52.198;20.908;2023-06-10T08:46:03;100499.00;;;27.80
45850;BMP180;10739;52.198;20.908;2023-06-10T08:48:30;100502.00;;;28.30
45850;BMP180;10739;52.198;20.908;2023-06-10T08:50:58;100502.00;;;27.60
45850;BMP180;10739;52.198;20.908;2023-06-10T08:53:26;100502.00;;;27.20
45850;BMP180;10739;52.198;20.908;2023-06-10T08:56:00;100511.00;;;27.40
45850;BMP180;10739;52.198;20.908;2023-06-10T08:58:28;100514.00;;;27.60
45850;BMP180;10739;52.198;20.908;2023-06-10T09:00:54;100511.00;;;28.20
45850;BMP180;10739;52.198;20.908;2023-06-10T09:03:21;100509.00;;;28.20
45850;BMP180;10739;52.198;20.908;2023-06-10T09:05:50;100514.00;;;28.20
45850;BMP180;10739;52.198;20.908;2023-06-10T09:08:17;100515.00;;;28.30
45850;BMP180;10739;52.198;20.908;2023-06-10T09:10:43;100515.00;;;28.30
45850;BMP180;10739;52.198;20.908;2023-06-10T09:13:09;100513.00;;;28.30
45850;BMP180;10739;52.198;20.908;2023-06-10T09:15:36;100514.00;;;28.50
45850;BMP180;10739;52.198;20.908;2023-06-10T09:18:02;100511.00;;;28.60
45850;BMP180;10739;52.198;20.908;2023-06-10T09:20:30;100520.00;;;28.10
45850;BMP180;10739;52.198;20.908;2023-06-10T09:22:57;100518.00;;;27.90
45850;BMP180;10739;52.198;20.908;2023-06-10T09:25:38;100520.00;;;28.30
45850;BMP180;10739;52.198;20.908;2023-06-10T09:28:14;100529.00;;;28.40
45850;BMP180;10739;52.198;20.908;2023-06-10T09:30:41;100527.00;;;28.60
45850;BMP180;10739;52.198;20.908;2023-06-10T09:33:14;100528.00;;;28.80
45850;BMP180;10739;52.198;20.908;2023-06-10T09:35:49;100534.00;;;29.00
45850;BMP180;10739;52.198;20.908;2023-06-10T09:38:21;100518.00;;;29.30
45850;BMP180;10739;52.198;20.908;2023-06-10T09:40:52;100533.00;;;28.30
45850;BMP180;10739;52.198;20.908;2023-06-10T09:43:20;100539.00;;;28.50
45850;BMP180;10739;52.198;20.908;2023-06-10T09:45:51;100524.00;;;28.70
45850;BMP180;10739;52.198;20.908;2023-06-10T09:48:22;100530.00;;;28.60
45850;BMP180;10739;52.198;20.908;2023-06-10T09:50:49;100529.00;;;28.50
45850;BMP180;10739;52.198;20.908;2023-06-10T09:53:17;100537.00;;;28.60
45850;BMP180;10739;52.198;20.908;2023-06-10T09:55:44;100537.00;;;28.50
45850;BMP180;10739;52.198;20.908;2023-06-10T09:58:10;100532.00;;;28.60
45850;BMP180;10739;52.198;20.908;2023-06-10T10:00:37;100535.00;;;28.30
45850;BMP180;10739;52.198;20.908;2023-06-10T10:03:03;100543.00;;;29.00
45850;BMP180;10739;52.198;20.908;2023-06-10T10:05:29;100540.00;;;29.20
45850;BMP180;10739;52.198;20.908;2023-06-10T10:07:56;100527.00;;;29.30
45850;BMP180;10739;52.198;20.908;2023-06-10T10:10:23;100534.00;;;29.40
45850;BMP180;10739;52.198;20.908;2023-06-10T10:12:56;100531.00;;;29.80
45850;BMP180;10739;52.198;20.908;2023-06-10T10:15:27;100531.00;;;29.70
45850;BMP180;10739;52.198;20.908;2023-06-10T10:18:07;100526.00;;;30.10
45850;BMP180;10739;52.198;20.908;2023-06-10T10:20:45;100519.00;;;30.50
45850;BMP180;10739;52.198;20.908;2023-06-10T10:23:21;100518.00;;;30.60
45850;BMP180;10739;52.198;20.908;2023-06-10T10:25:53;100517.00;;;30.80
45850;BMP180;10739;52.198;20.908;2023-06-10T10:28:24;100513.00;;;30.70
45850;BMP180;10739;52.198;20.908;2023-06-10T10:31:03;100517.00;;;31.20
45850;BMP180;10739;52.198;20.908;2023-06-10T10:33:45;100521.00;;;31.60
45850;BMP180;10739;52.198;20.908;2023-06-10T10:36:15;100526.00;;;31.50
45850;BMP180;10739;52.198;20.908;2023-06-10T10:38:45;100518.00;;;31.70
45850;BMP180;10739;52.198;20.908;2023-06-10T10:41:14;100518.00;;;32.30
45850;BMP180;10739;52.198;20.908;2023-06-10T10:43:43;100531.00;;;32.00
45850;BMP180;10739;52.198;20.908;2023-06-10T10:46:16;100521.00;;;32.20
45850;BMP180;10739;52.198;20.908;2023-06-10T10:48:43;100524.00;;;31.40
45850;BMP180;10739;52.198;20.908;2023-06-10T10:51:11;100532.00;;;30.90
45850;BMP180;10739;52.198;20.908;2023-06-10T10:53:38;100525.00;;;31.20
45850;BMP180;10739;52.198;20.908;2023-06-10T10:56:14;100527.00;;;31.50
45850;BMP180;10739;52.198;20.908;2023-06-10T10:58:41;100515.00;;;31.80
45850;BMP180;10739;52.198;20.908;2023-06-10T11:01:14;100524.00;;;31.70
45850;BMP180;10739;52.198;20.908;2023-06-10T11:03:45;100516.00;;;32.40
45850;BMP180;10739;52.198;20.908;2023-06-10T11:06:14;100511.00;;;33.20
45850;BMP180;10739;52.198;20.908;2023-06-10T11:11:25;100517.00;;;32.70
45850;BMP180;10739;52.198;20.908;2023-06-10T11:14:06;100513.00;;;32.60
45850;BMP180;10739;52.198;20.908;2023-06-10T11:16:43;100498.00;;;32.70
45850;BMP180;10739;52.198;20.908;2023-06-10T11:19:10;100495.00;;;33.10
45850;BMP180;10739;52.198;20.908;2023-06-10T11:22:01;100508.00;;;33.70
45850;BMP180;10739;52.198;20.908;2023-06-10T11:24:29;100504.00;;;33.70
45850;BMP180;10739;52.198;20.908;2023-06-10T11:27:21;100513.00;;;33.80
45850;BMP180;10739;52.198;20.908;2023-06-10T11:32:31;100498.00;;;34.50
45850;BMP180;10739;52.198;20.908;2023-06-10T11:34:58;100514.00;;;34.10
45850;BMP180;10739;52.198;20.908;2023-06-10T11:37:25;100505.00;;;34.20
45850;BMP180;10739;52.198;20.908;2023-06-10T11:39:55;100498.00;;;34.30
45850;BMP180;10739;52.198;20.908;2023-06-10T11:42:22;100495.00;;;34.80
45850;BMP180;10739;52.198;20.908;2023-06-10T11:44:53;100501.00;;;35.00
45850;BMP180;10739;52.198;20.908;2023-06-10T11:47:20;100500.00;;;34.00
45850;BMP180;10739;52.198;20.908;2023-06-10T11:49:56;100501.00;;;34.60
45850;BMP180;10739;52.198;20.908;2023-06-10T11:52:30;100504.00;;;35.00
45850;BMP180;10739;52.198;20.908;2023-06-10T11:55:06;100490.00;;;35.20
45850;BMP180;10739;52.198;20.908;2023-06-10T11:57:36;100496.00;;;34.80
45850;BMP180;10739;52.198;20.908;2023-06-10T12:00:08;100485.00;;;35.10
45850;BMP180;10739;52.198;20.908;2023-06-10T12:02:35;100500.00;;;35.60
45850;BMP180;10739;52.198;20.908;2023-06-10T12:05:14;100493.00;;;35.80
45850;BMP180;10739;52.198;20.908;2023-06-10T12:07:40;100485.00;;;35.80
45850;BMP180;10739;52.198;20.908;2023-06-10T12:10:07;100488.00;;;35.00
45850;BMP180;10739;52.198;20.908;2023-06-10T12:12:35;100487.00;;;35.20
45850;BMP180;10739;52.198;20.908;2023-06-10T12:15:02;100493.00;;;35.20
45850;BMP180;10739;52.198;20.908;2023-06-10T12:20:23;100478.00;;;35.20
45850;BMP180;10739;52.198;20.908;2023-06-10T12:22:50;100491.00;;;35.70
45850;BMP180;10739;52.198;20.908;2023-06-10T12:25:16;100487.00;;;36.20
45850;BMP180;10739;52.198;20.908;2023-06-10T12:27:53;100472.00;;;36.80
45850;BMP180;10739;52.198;20.908;2023-06-10T12:30:24;100483.00;;;36.30
45850;BMP180;10739;52.198;20.908;2023-06-10T12:32:52;100474.00;;;36.30
45850;BMP180;10739;52.198;20.908;2023-06-10T12:35:27;100478.00;;;36.70
45850;BMP180;10739;52.198;20.908;2023-06-10T12:38:01;100468.00;;;36.30
45850;BMP180;10739;52.198;20.908;2023-06-10T12:40:31;100475.00;;;36.40
45850;BMP180;10739;52.198;20.908;2023-06-10T12:42:59;100469.00;;;36.50
45850;BMP180;10739;52.198;20.908;2023-06-10T12:45:39;100464.00;;;36.30
45850;BMP180;10739;52.198;20.908;2023-06-10T12:48:07;100468.00;;;36.10
45850;BMP180;10739;52.198;20.908;2023-06-10T12:50:42;100469.00;;;35.30
45850;BMP180;10739;52.198;20.908;2023-06-10T12:53:10;100474.00;;;34.90
45850;BMP180;10739;52.198;20.908;2023-06-10T12:55:40;100466.00;;;35.10
45850;BMP180;10739;52.198;20.908;2023-06-10T12:58:06;100471.00;;;33.60
45850;BMP180;10739;52.198;20.908;2023-06-10T13:00:32;100463.00;;;33.50
45850;BMP180;10739;52.198;20.908;2023-06-10T13:03:02;100472.00;;;33.60
45850;BMP180;10739;52.198;20.908;2023-06-10T13:05:29;100464.00;;;32.80
45850;BMP180;10739;52.198;20.908;2023-06-10T13:07:56;100461.00;;;33.20
45850;BMP180;10739;52.198;20.908;2023-06-10T13:10:22;100467.00;;;33.00
45850;BMP180;10739;52.198;20.908;2023-06-10T13:12:48;100461.00;;;32.70
45850;BMP180;10739;52.198;20.908;2023-06-10T13:15:15;100451.00;;;33.70
45850;BMP180;10739;52.198;20.908;2023-06-10T13:17:45;100459.00;;;34.00
45850;BMP180;10739;52.198;20.908;2023-06-10T13:20:15;100453.00;;;34.50
45850;BMP180;10739;52.198;20.908;2023-06-10T13:22:43;100455.00;;;34.60
45850;BMP180;10739;52.198;20.908;2023-06-10T13:25:09;100454.00;;;34.80
45850;BMP180;10739;52.198;20.908;2023-06-10T13:27:36;100455.00;;;34.90
45850;BMP180;10739;52.198;20.908;2023-06-10T13:30:08;100438.00;;;35.80
45850;BMP180;10739;52.198;20.908;2023-06-10T13:32:35;100447.00;;;36.20
45850;BMP180;10739;52.198;20.908;2023-06-10T13:35:01;100442.00;;;35.80
45850;BMP180;10739;52.198;20.908;2023-06-10T13:37:29;100458.00;;;36.00
45850;BMP180;10739;52.198;20.908;2023-06-10T13:39:55;100454.00;;;35.40
45850;BMP180;10739;52.198;20.908;2023-06-10T13:42:22;100447.00;;;34.60
45850;BMP180;10739;52.198;20.908;2023-06-10T13:44:48;100453.00;;;35.30
45850;BMP180;10739;52.198;20.908;2023-06-10T13:47:15;100459.00;;;35.60
45850;BMP180;10739;52.198;20.908;2023-06-10T13:49:41;100448.00;;;35.60
45850;BMP180;10739;52.198;20.908;2023-06-10T13:52:08;100451.00;;;35.50
45850;BMP180;10739;52.198;20.908;2023-06-10T13:54:34;100445.00;;;35.70
45850;BMP180;10739;52.198;20.908;2023-06-10T13:57:04;100444.00;;;36.10
45850;BMP180;10739;52.198;20.908;2023-06-10T13:59:30;100445.00;;;35.90
45850;BMP180;10739;52.198;20.908;2023-06-10T14:01:57;100453.00;;;36.00
45850;BMP180;10739;52.198;20.908;2023-06-10T14:04:23;100456.00;;;36.30